fecha-hora | temperatura | viento dirección-velocidad-rachas | humedad | presión

  • 27-09-2020 00:00:00 | 16.90°C | Oeste-26.00 km/h - 46.00 km/h | 59.00% | 947.00 hPa
  • 26-09-2020 23:00:00 | 17.30°C | Oeste-28.00 km/h - 42.00 km/h | 55.00% | 947.50 hPa
  • 26-09-2020 22:00:00 | 17.50°C | Oeste-16.00 km/h - 30.00 km/h | 48.00% | 948.00 hPa
  • 26-09-2020 21:00:00 | 18.40°C | Sudoeste-15.00 km/h - 32.00 km/h | 44.00% | 948.40 hPa
  • 26-09-2020 20:00:00 | 19.00°C | Oeste-26.00 km/h - 46.00 km/h | 41.00% | 948.70 hPa
  • 26-09-2020 19:00:00 | 19.60°C | Oeste-28.00 km/h - 41.00 km/h | 40.00% | 948.50 hPa
  • 26-09-2020 18:00:00 | 20.90°C | Oeste-28.00 km/h - 39.00 km/h | 37.00% | 948.70 hPa
  • 26-09-2020 17:00:00 | 21.10°C | Oeste-17.00 km/h - 30.00 km/h | 37.00% | 949.30 hPa
  • 26-09-2020 16:00:00 | 20.00°C | Sudoeste-9.00 km/h - 22.00 km/h | 40.00% | 950.10 hPa
  • 26-09-2020 15:00:00 | 18.90°C | Sur-8.00 km/h - 22.00 km/h | 38.00% | 951.20 hPa
  • 26-09-2020 14:00:00 | 17.90°C | Sur-10.00 km/h - 26.00 km/h | 39.00% | 952.30 hPa
  • 26-09-2020 13:00:00 | 16.40°C | Oeste-7.00 km/h - 15.00 km/h | 43.00% | 953.20 hPa
  • 26-09-2020 12:00:00 | 15.10°C | Sur-4.00 km/h - 11.00 km/h | 45.00% | 953.80 hPa
  • 26-09-2020 11:00:00 | 13.30°C | Norte-4.00 km/h - 9.00 km/h | 52.00% | 954.30 hPa
  • 26-09-2020 10:00:00 | 12.40°C | Calma-0.00 km/h - 8.00 km/h | 60.00% | 954.10 hPa
  • 26-09-2020 09:00:00 | 8.30°C | Sudeste-4.00 km/h - 9.00 km/h | 77.00% | 953.70 hPa
  • 26-09-2020 08:00:00 | 7.80°C | Sudoeste-2.00 km/h - 9.00 km/h | 72.00% | 953.90 hPa
  • 26-09-2020 07:00:00 | 7.60°C | Calma-0.00 km/h - 5.00 km/h | 74.00% | 954.10 hPa
  • 26-09-2020 06:00:00 | 8.70°C | Norte-3.00 km/h - 9.00 km/h | 68.00% | 954.20 hPa
  • 26-09-2020 05:00:00 | 10.10°C | Sudeste-8.00 km/h - 11.00 km/h | 61.00% | 954.30 hPa
  • 26-09-2020 04:00:00 | 10.30°C | Este-6.00 km/h - 11.00 km/h | 60.00% | 954.90 hPa
  • 26-09-2020 03:00:00 | 10.80°C | Nordeste-5.00 km/h - 11.00 km/h | 58.00% | 955.40 hPa
  • 26-09-2020 02:00:00 | 12.90°C | Norte-5.00 km/h - 30.00 km/h | 51.00% | 955.30 hPa
  • 26-09-2020 01:00:00 | 13.50°C | Noroeste-13.00 km/h - 15.00 km/h | 50.00% | 955.70 hPa
    • diseño web asturias Información sobre el estado de las mareas, altura de la marejada, temperatura del agua y otros datos de Gijón en Asturias.

      Surf Gijón